Time;durP1;ratioP1;P1;durP2;ratioP2;P2;SDS_P1;SDS_P2;PMS_P1;PMS_P2;Temp;Humidity;BMP_temperature;BMP_pressure;BME280_temperature;BME280_humidity;BME280_pressure;Samples;Min_cycle;Max_cycle;Signal;HPM_P1;HPM_P2
2021/07/23 00:01:43;;;;;;;22.92;13.20;;;17.90;99.90;;;;;;5078646;28;20531;-60
2021/07/23 00:04:11;;;;;;;19.67;12.40;;;17.80;99.90;;;;;;5084106;28;20121;-59
2021/07/23 00:06:36;;;;;;;20.83;12.50;;;17.70;99.90;;;;;;5077158;28;20025;-59
2021/07/23 00:09:03;;;;;;;19.60;12.50;;;17.70;99.90;;;;;;5071905;28;20152;-59
2021/07/23 00:11:29;;;;;;;17.83;12.05;;;17.80;99.90;;;;;;5073512;28;20098;-59
2021/07/23 00:13:55;;;;;;;18.63;12.30;;;17.80;99.90;;;;;;5078144;28;20193;-59
2021/07/23 00:16:20;;;;;;;19.75;11.60;;;17.70;99.90;;;;;;5083165;28;20486;-59
2021/07/23 00:18:46;;;;;;;22.00;11.88;;;17.60;99.90;;;;;;5078383;28;20024;-60
2021/07/23 00:21:12;;;;;;;16.48;11.40;;;17.70;99.90;;;;;;5080653;28;20470;-60
2021/07/23 00:23:37;;;;;;;21.73;12.13;;;17.80;99.90;;;;;;5080259;28;20032;-59
2021/07/23 00:26:10;;;;;;;18.70;11.73;;;17.80;99.90;;;;;;5080568;28;20028;-59
2021/07/23 00:28:36;;;;;;;19.98;11.70;;;17.60;99.90;;;;;;5081536;28;20024;-58
2021/07/23 00:31:01;;;;;;;25.85;12.70;;;17.60;99.90;;;;;;5077348;28;20052;-59
2021/07/23 00:33:27;;;;;;;19.95;12.00;;;17.50;99.90;;;;;;5075617;28;20020;-60
2021/07/23 00:35:52;;;;;;;20.33;11.90;;;17.40;99.90;;;;;;5074865;28;20032;-60
2021/07/23 00:38:18;;;;;;;20.65;12.63;;;17.50;99.90;;;;;;5077961;28;20386;-60
2021/07/23 00:40:44;;;;;;;21.15;12.77;;;17.50;99.90;;;;;;5085662;28;20024;-60
2021/07/23 00:43:10;;;;;;;17.73;11.98;;;17.40;99.90;;;;;;5072732;28;20039;-60
2021/07/23 00:45:36;;;;;;;19.60;12.45;;;17.40;99.90;;;;;;5076935;28;20036;-60
2021/07/23 00:48:02;;;;;;;20.42;12.40;;;17.40;99.90;;;;;;5076851;28;20082;-59
2021/07/23 00:50:30;;;;;;;17.77;12.20;;;17.30;99.90;;;;;;5072108;28;20473;-59
2021/07/23 00:52:56;;;;;;;18.52;11.50;;;17.20;99.90;;;;;;5071679;28;20043;-59
2021/07/23 00:55:24;;;;;;;17.23;10.85;;;17.20;99.90;;;;;;5071006;28;20641;-59
2021/07/23 00:57:50;;;;;;;19.42;11.20;;;17.20;99.90;;;;;;5080928;28;20486;-59
2021/07/23 01:00:16;;;;;;;16.73;10.43;;;17.10;99.90;;;;;;5072151;28;20092;-58
2021/07/23 01:02:43;;;;;;;24.70;11.85;;;17.20;99.90;;;;;;5085372;28;20793;-59
2021/07/23 01:05:09;;;;;;;17.45;10.88;;;17.10;99.90;;;;;;5081174;28;20024;-59
2021/07/23 01:07:36;;;;;;;21.75;11.38;;;17.10;99.90;;;;;;5078827;28;20036;-60
2021/07/23 01:10:02;;;;;;;20.13;10.75;;;17.10;99.90;;;;;;5071782;28;20040;-59
2021/07/23 01:12:29;;;;;;;17.10;11.05;;;17.10;99.90;;;;;;5077804;28;20036;-59
2021/07/23 01:14:56;;;;;;;23.52;11.45;;;17.00;99.90;;;;;;5083531;28;20050;-60
2021/07/23 01:17:21;;;;;;;17.23;11.32;;;16.90;99.90;;;;;;5078886;28;20078;-59
2021/07/23 01:19:56;;;;;;;18.17;11.02;;;16.80;99.90;;;;;;5082281;28;20594;-59
2021/07/23 01:22:26;;;;;;;16.58;10.40;;;16.80;99.90;;;;;;5085273;28;20059;-60
2021/07/23 01:24:52;;;;;;;18.55;10.60;;;16.80;99.90;;;;;;5082678;28;20752;-60
2021/07/23 01:27:18;;;;;;;17.90;10.23;;;16.80;99.90;;;;;;5075922;28;20024;-59
2021/07/23 01:29:44;;;;;;;17.65;10.48;;;16.70;99.90;;;;;;5080097;28;20361;-61
2021/07/23 01:32:09;;;;;;;18.20;9.70;;;16.80;99.90;;;;;;5074229;28;20040;-60
2021/07/23 01:34:35;;;;;;;16.13;9.43;;;16.80;99.90;;;;;;5071099;28;20111;-60
2021/07/23 01:37:01;;;;;;;14.15;9.60;;;16.80;99.90;;;;;;5072252;28;20031;-59
2021/07/23 01:39:27;;;;;;;17.00;9.95;;;16.70;99.90;;;;;;5075010;28;20035;-59
2021/07/23 01:41:53;;;;;;;18.30;9.80;;;16.70;99.90;;;;;;5073731;28;20129;-59
2021/07/23 01:44:22;;;;;;;16.45;9.60;;;16.70;99.90;;;;;;5075079;28;20485;-59
2021/07/23 01:46:48;;;;;;;19.00;9.90;;;16.70;99.90;;;;;;5067659;28;20028;-59
2021/07/23 01:49:14;;;;;;;15.70;9.68;;;16.70;99.90;;;;;;5072495;28;20155;-60
2021/07/23 01:51:40;;;;;;;23.50;10.20;;;16.70;99.90;;;;;;5083627;28;20073;-58
2021/07/23 01:54:05;;;;;;;14.77;10.25;;;16.60;99.90;;;;;;5079115;28;20478;-60
2021/07/23 01:56:31;;;;;;;15.30;9.98;;;16.70;99.90;;;;;;5070904;28;20025;-59
2021/07/23 01:58:57;;;;;;;19.35;10.05;;;16.60;99.90;;;;;;5070263;28;20032;-60
2021/07/23 02:01:23;;;;;;;16.42;9.90;;;16.60;99.90;;;;;;5072743;28;20043;-59
2021/07/23 02:03:48;;;;;;;15.75;9.65;;;16.60;99.90;;;;;;5080008;28;20036;-59
2021/07/23 02:06:15;;;;;;;21.35;10.63;;;16.60;99.90;;;;;;5070325;28;20386;-59
2021/07/23 02:08:41;;;;;;;16.70;9.18;;;16.60;99.90;;;;;;5073644;28;20027;-60
2021/07/23 02:11:07;;;;;;;15.95;9.73;;;16.50;99.90;;;;;;5077537;28;20111;-59
2021/07/23 02:13:32;;;;;;;16.73;9.65;;;16.50;99.90;;;;;;5074845;28;20039;-59
2021/07/23 02:16:01;;;;;;;18.17;10.10;;;16.60;99.90;;;;;;5079446;28;20107;-59
2021/07/23 02:18:27;;;;;;;17.27;10.32;;;16.50;99.90;;;;;;5075087;28;20021;-60
2021/07/23 02:20:53;;;;;;;16.75;10.05;;;16.50;99.90;;;;;;5079747;28;20474;-59
2021/07/23 02:23:18;;;;;;;21.35;10.80;;;16.40;99.90;;;;;;5070301;28;20426;-60
2021/07/23 02:25:44;;;;;;;14.85;9.98;;;16.30;99.90;;;;;;5075990;28;20391;-60
2021/07/23 02:28:10;;;;;;;16.27;9.82;;;16.30;99.90;;;;;;5079079;28;20503;-60
2021/07/23 02:30:35;;;;;;;17.65;10.45;;;16.30;99.90;;;;;;5082140;28;20045;-59
2021/07/23 02:33:01;;;;;;;18.20;10.43;;;16.20;99.90;;;;;;5073052;28;20050;-59
2021/07/23 02:35:27;;;;;;;17.73;9.60;;;16.20;99.90;;;;;;5069045;28;20036;-60
2021/07/23 02:37:52;;;;;;;16.85;10.07;;;16.20;99.90;;;;;;5076128;28;20020;-60
2021/07/23 02:40:18;;;;;;;17.80;10.05;;;16.20;99.90;;;;;;5075084;28;20036;-59
2021/07/23 02:42:43;;;;;;;16.60;10.18;;;16.10;99.90;;;;;;5078872;28;20028;-60
2021/07/23 02:45:10;;;;;;;19.90;10.63;;;16.10;99.90;;;;;;5080369;28;20028;-60
2021/07/23 02:47:35;;;;;;;15.57;9.82;;;16.10;99.90;;;;;;5069800;28;20097;-59
2021/07/23 02:50:01;;;;;;;16.98;10.00;;;16.10;99.90;;;;;;5077245;28;20033;-61
2021/07/23 02:52:26;;;;;;;15.80;9.98;;;16.10;99.90;;;;;;5074375;28;20037;-61
2021/07/23 02:54:52;;;;;;;14.63;9.48;;;16.10;99.90;;;;;;5074692;28;20040;-60
2021/07/23 02:57:18;;;;;;;20.60;9.75;;;16.10;99.90;;;;;;5074896;28;20029;-60
2021/07/23 02:59:43;;;;;;;20.40;9.82;;;16.10;99.90;;;;;;5075711;28;20028;-59
2021/07/23 03:02:09;;;;;;;16.60;9.85;;;16.10;99.90;;;;;;5078956;28;20025;-60
2021/07/23 03:04:35;;;;;;;17.95;10.48;;;16.10;99.90;;;;;;5069489;28;20178;-59
2021/07/23 03:07:00;;;;;;;16.23;9.73;;;16.10;99.90;;;;;;5074560;28;20059;-60
2021/07/23 03:09:26;;;;;;;18.45;10.07;;;16.00;99.90;;;;;;5071572;28;20037;-61
2021/07/23 03:11:52;;;;;;;21.65;10.20;;;16.00;99.90;;;;;;5077704;28;20057;-59
2021/07/23 03:14:17;;;;;;;20.10;10.52;;;16.00;99.90;;;;;;5079442;28;20383;-59
2021/07/23 03:16:43;;;;;;;17.10;10.00;;;16.00;99.90;;;;;;5071748;28;20494;-59
2021/07/23 03:19:09;;;;;;;20.27;10.32;;;16.10;99.90;;;;;;5073533;28;20543;-59
2021/07/23 03:21:35;;;;;;;16.20;9.77;;;16.00;99.90;;;;;;5071934;28;20051;-60
2021/07/23 03:24:00;;;;;;;17.55;9.75;;;16.00;99.90;;;;;;5084210;28;20040;-60
2021/07/23 03:26:26;;;;;;;16.80;10.05;;;15.90;99.90;;;;;;5079492;28;20024;-60
2021/07/23 03:28:51;;;;;;;17.05;10.52;;;15.90;99.90;;;;;;5082954;28;20064;-60
2021/07/23 03:31:17;;;;;;;19.30;10.00;;;15.90;99.90;;;;;;5077550;28;20036;-60
2021/07/23 03:33:43;;;;;;;15.85;9.82;;;15.80;99.90;;;;;;5074156;28;20035;-59
2021/07/23 03:36:09;;;;;;;17.35;10.18;;;15.80;99.90;;;;;;5075584;28;20368;-59
2021/07/23 03:38:35;;;;;;;17.63;10.57;;;15.80;99.90;;;;;;5076129;28;20040;-60
2021/07/23 03:41:01;;;;;;;21.38;10.10;;;15.80;99.90;;;;;;5090951;28;20024;-60
2021/07/23 03:43:27;;;;;;;16.13;10.82;;;15.80;99.90;;;;;;5077004;28;20039;-60
2021/07/23 03:45:52;;;;;;;23.52;13.13;;;15.90;99.90;;;;;;5076091;28;20475;-59
2021/07/23 03:48:18;;;;;;;15.05;10.15;;;15.90;99.90;;;;;;5074773;28;20112;-61
2021/07/23 03:50:45;;;;;;;18.13;10.68;;;16.00;99.90;;;;;;5079546;28;20056;-59
2021/07/23 03:53:11;;;;;;;19.77;11.00;;;15.90;99.90;;;;;;5072394;28;20047;-59
2021/07/23 03:55:37;;;;;;;18.35;10.95;;;15.90;99.90;;;;;;5082698;28;20025;-61
2021/07/23 03:58:04;;;;;;;17.33;11.32;;;15.80;99.90;;;;;;5073719;28;20150;-59
2021/07/23 04:00:29;;;;;;;20.80;10.40;;;15.80;99.90;;;;;;5071942;28;20467;-59
2021/07/23 04:02:55;;;;;;;14.95;10.65;;;15.80;99.90;;;;;;5075934;28;20190;-59
2021/07/23 04:05:21;;;;;;;14.90;9.98;;;15.70;99.90;;;;;;5084990;28;20474;-59
2021/07/23 04:07:46;;;;;;;22.17;10.80;;;15.60;99.90;;;;;;5078081;28;20036;-59
2021/07/23 04:10:12;;;;;;;19.80;11.57;;;15.50;99.90;;;;;;5073514;28;20104;-59
2021/07/23 04:12:38;;;;;;;23.42;10.77;;;15.50;99.90;;;;;;5078585;28;20116;-60
2021/07/23 04:15:09;;;;;;;19.90;11.40;;;15.50;99.90;;;;;;5079528;28;20035;-60
2021/07/23 04:17:35;;;;;;;19.50;10.98;;;15.50;99.90;;;;;;5075526;28;20103;-60
2021/07/23 04:20:00;;;;;;;18.83;11.38;;;15.50;99.90;;;;;;5084754;28;20106;-60
2021/07/23 04:22:26;;;;;;;23.90;11.90;;;15.50;99.90;;;;;;5074789;28;20064;-59
2021/07/23 04:24:52;;;;;;;18.02;10.98;;;15.50;99.90;;;;;;5074455;28;20036;-59
2021/07/23 04:27:18;;;;;;;20.77;12.05;;;15.40;99.90;;;;;;5076226;28;20028;-59
2021/07/23 04:29:47;;;;;;;21.23;11.05;;;15.40;99.90;;;;;;5069751;28;20485;-58
2021/07/23 04:32:13;;;;;;;21.20;11.63;;;15.40;99.90;;;;;;5082466;28;20028;-58
2021/07/23 04:34:39;;;;;;;18.13;11.45;;;15.40;99.90;;;;;;5075537;28;20036;-59
2021/07/23 04:37:05;;;;;;;19.58;12.07;;;15.40;99.90;;;;;;5072675;28;20042;-59
2021/07/23 04:39:31;;;;;;;20.73;12.20;;;15.40;99.90;;;;;;5071043;28;20033;-59
2021/07/23 04:41:56;;;;;;;27.35;12.73;;;15.50;99.90;;;;;;5090742;28;20099;-60
2021/07/23 04:44:22;;;;;;;24.85;12.88;;;15.50;99.90;;;;;;5078875;28;20033;-59
2021/07/23 04:46:48;;;;;;;21.27;12.38;;;15.70;99.90;;;;;;5077065;28;20031;-59
2021/07/23 04:49:14;;;;;;;27.10;12.75;;;15.70;99.90;;;;;;5072617;28;20459;-59
2021/07/23 04:51:39;;;;;;;22.60;13.02;;;15.60;99.90;;;;;;5071588;28;20041;-59
2021/07/23 04:54:05;;;;;;;21.45;12.15;;;15.60;99.90;;;;;;5084411;28;20073;-59
2021/07/23 04:56:31;;;;;;;20.17;11.80;;;15.70;99.90;;;;;;5076706;28;20029;-59
2021/07/23 04:58:56;;;;;;;20.30;12.20;;;15.70;99.90;;;;;;5072134;28;20439;-59
2021/07/23 05:01:22;;;;;;;28.73;13.30;;;15.60;99.90;;;;;;5078401;28;20783;-58
2021/07/23 05:03:48;;;;;;;24.13;11.93;;;15.60;99.90;;;;;;5081190;28;20394;-60
2021/07/23 05:06:13;;;;;;;18.75;12.05;;;15.70;99.90;;;;;;5079303;28;20039;-59
2021/07/23 05:08:39;;;;;;;25.10;12.68;;;15.80;99.90;;;;;;5079322;28;20383;-60
2021/07/23 05:11:10;;;;;;;23.90;12.70;;;15.90;99.90;;;;;;5070335;28;20101;-59
2021/07/23 05:13:37;;;;;;;21.63;13.45;;;16.00;99.90;;;;;;5072132;28;20137;-60
2021/07/23 05:16:03;;;;;;;23.98;13.02;;;16.00;99.90;;;;;;5079352;28;20027;-59
2021/07/23 05:18:30;;;;;;;27.35;13.30;;;15.90;99.90;;;;;;5077668;28;20367;-60
2021/07/23 05:20:56;;;;;;;21.98;12.10;;;16.00;99.90;;;;;;5070636;28;20033;-60
2021/07/23 05:23:22;;;;;;;27.75;12.80;;;16.00;99.90;;;;;;5083340;28;20036;-60
2021/07/23 05:25:48;;;;;;;18.73;12.93;;;16.00;99.90;;;;;;5081196;28;20029;-58
2021/07/23 05:28:14;;;;;;;19.65;12.93;;;16.00;99.90;;;;;;5070432;28;20449;-60
2021/07/23 05:30:41;;;;;;;20.40;12.07;;;16.00;99.90;;;;;;5072634;28;20822;-61
2021/07/23 05:33:07;;;;;;;20.48;12.38;;;16.00;99.90;;;;;;5073341;28;20114;-60
2021/07/23 05:35:33;;;;;;;18.77;11.82;;;16.10;99.90;;;;;;5085032;28;20086;-59
2021/07/23 05:37:58;;;;;;;24.27;12.63;;;16.10;99.90;;;;;;5081753;28;20069;-60
2021/07/23 05:40:24;;;;;;;20.67;12.00;;;16.20;99.90;;;;;;5081621;28;20498;-59
2021/07/23 05:42:53;;;;;;;19.38;11.18;;;16.20;99.90;;;;;;5079389;28;20032;-59
2021/07/23 05:45:20;;;;;;;24.02;12.63;;;16.20;99.90;;;;;;5072349;28;20032;-59
2021/07/23 05:47:45;;;;;;;23.25;11.90;;;16.30;99.90;;;;;;5075538;28;20034;-60
2021/07/23 05:50:11;;;;;;;26.63;11.77;;;16.30;99.90;;;;;;5073910;28;20032;-59
2021/07/23 05:52:37;;;;;;;25.33;12.18;;;16.40;99.90;;;;;;5071009;28;20064;-60
2021/07/23 05:55:03;;;;;;;18.65;11.32;;;16.40;99.90;;;;;;5070332;28;20615;-59
2021/07/23 05:57:29;;;;;;;19.42;10.63;;;16.40;99.90;;;;;;5070642;28;20029;-60
2021/07/23 05:59:55;;;;;;;21.10;10.80;;;16.40;99.90;;;;;;5083045;28;20036;-60
2021/07/23 06:02:20;;;;;;;14.85;11.02;;;16.50;99.90;;;;;;5078127;28;20035;-59
2021/07/23 06:04:46;;;;;;;17.42;10.82;;;16.50;99.90;;;;;;5073351;28;20529;-59
2021/07/23 06:07:14;;;;;;;17.15;9.63;;;16.60;99.90;;;;;;5072206;28;20032;-60
2021/07/23 06:09:40;;;;;;;19.77;10.35;;;16.60;99.90;;;;;;5076712;28;20032;-60
2021/07/23 06:12:06;;;;;;;21.00;10.93;;;16.60;99.90;;;;;;5084551;28;20050;-60
2021/07/23 06:14:32;;;;;;;15.75;10.23;;;16.70;99.90;;;;;;5075891;28;20108;-60
2021/07/23 06:16:58;;;;;;;15.57;9.80;;;16.80;99.90;;;;;;5081543;28;20103;-59
2021/07/23 06:19:24;;;;;;;21.60;10.35;;;16.80;99.90;;;;;;5073552;28;20115;-60
2021/07/23 06:21:50;;;;;;;19.50;9.95;;;16.90;99.90;;;;;;5073494;28;20541;-59
2021/07/23 06:24:16;;;;;;;18.52;9.45;;;16.90;99.90;;;;;;5072938;28;20028;-59
2021/07/23 06:26:43;;;;;;;15.95;9.57;;;16.90;99.90;;;;;;5075441;28;20094;-60
2021/07/23 06:29:09;;;;;;;25.10;9.82;;;17.00;99.90;;;;;;5078443;28;20043;-60
2021/07/23 06:31:36;;;;;;;14.68;8.93;;;17.00;99.90;;;;;;5081664;28;20040;-60
2021/07/23 06:34:02;;;;;;;18.58;9.32;;;17.00;99.90;;;;;;5071295;28;20033;-59
2021/07/23 06:36:32;;;;;;;15.93;8.85;;;17.10;99.90;;;;;;5081971;28;20089;-61
2021/07/23 06:38:58;;;;;;;18.30;9.25;;;17.20;99.90;;;;;;5071203;28;20017;-59
2021/07/23 06:41:23;;;;;;;17.40;9.52;;;17.30;99.90;;;;;;5081962;28;20035;-60
2021/07/23 06:43:49;;;;;;;23.20;9.85;;;17.50;99.90;;;;;;5071915;28;20024;-60
2021/07/23 06:46:16;;;;;;;21.02;9.57;;;17.70;99.90;;;;;;5079099;28;20263;-59
2021/07/23 06:48:42;;;;;;;19.25;9.75;;;18.00;99.90;;;;;;5082602;28;20058;-59
2021/07/23 06:51:07;;;;;;;16.15;9.00;;;18.30;99.90;;;;;;5079762;28;20060;-60
2021/07/23 06:53:33;;;;;;;15.50;8.38;;;18.40;99.90;;;;;;5073857;28;20025;-60
2021/07/23 06:55:59;;;;;;;23.25;10.25;;;18.50;99.90;;;;;;5075436;28;20047;-59
2021/07/23 06:58:24;;;;;;;21.42;9.52;;;18.70;99.90;;;;;;5076291;28;20032;-59
2021/07/23 07:00:50;;;;;;;18.35;8.63;;;18.90;99.90;;;;;;5082032;28;20024;-61
2021/07/23 07:03:16;;;;;;;19.25;9.02;;;19.00;99.90;;;;;;5081837;28;20024;-60
2021/07/23 07:05:41;;;;;;;19.88;8.88;;;19.20;99.90;;;;;;5079195;28;20111;-58
2021/07/23 07:08:07;;;;;;;16.85;8.50;;;19.40;99.90;;;;;;5084191;28;20032;-60
2021/07/23 07:10:33;;;;;;;18.98;8.50;;;19.60;99.90;;;;;;5078679;28;20036;-59
2021/07/23 07:12:59;;;;;;;17.92;8.25;;;19.80;99.90;;;;;;5083858;28;20036;-59
2021/07/23 07:15:26;;;;;;;14.68;8.13;;;19.80;99.90;;;;;;5080017;28;20024;-58
2021/07/23 07:17:56;;;;;;;14.10;8.10;;;19.90;99.90;;;;;;5077669;28;20462;-60
2021/07/23 07:20:22;;;;;;;19.17;8.57;;;20.00;99.90;;;;;;5074809;28;20028;-60
2021/07/23 07:22:47;;;;;;;18.75;8.90;;;19.70;99.90;;;;;;5072342;28;20032;-60
2021/07/23 07:25:13;;;;;;;15.70;8.52;;;19.60;99.90;;;;;;5073022;28;20032;-59
2021/07/23 07:27:39;;;;;;;15.18;8.38;;;19.50;99.90;;;;;;5082821;28;20047;-60
2021/07/23 07:30:05;;;;;;;14.35;7.38;;;19.70;99.90;;;;;;5075809;28;20044;-59
2021/07/23 07:32:30;;;;;;;11.90;7.88;;;19.70;99.90;;;;;;5085935;28;20505;-60
2021/07/23 07:34:56;;;;;;;17.60;8.60;;;19.50;99.90;;;;;;5084940;28;20047;-59
2021/07/23 07:37:22;;;;;;;19.33;8.55;;;19.30;99.90;;;;;;5073561;28;20078;-60
2021/07/23 07:39:48;;;;;;;14.68;8.07;;;19.20;99.90;;;;;;5073583;28;20029;-58
2021/07/23 07:42:16;;;;;;;13.98;7.53;;;19.10;99.90;;;;;;5073092;28;20051;-60
2021/07/23 07:44:42;;;;;;;15.32;9.00;;;19.10;99.90;;;;;;5075804;28;20099;-58
2021/07/23 07:47:08;;;;;;;15.52;7.78;;;19.00;99.90;;;;;;5073833;28;20037;-58
2021/07/23 07:49:33;;;;;;;16.35;8.07;;;19.00;99.90;;;;;;5074527;28;20032;-60
2021/07/23 07:51:59;;;;;;;17.30;8.52;;;18.90;99.90;;;;;;5077362;28;20047;-60
2021/07/23 07:54:25;;;;;;;15.98;8.40;;;19.00;99.90;;;;;;5081477;28;20047;-59
2021/07/23 07:56:51;;;;;;;18.33;8.07;;;18.90;99.90;;;;;;5080447;28;20031;-60
2021/07/23 07:59:17;;;;;;;18.88;8.25;;;18.90;99.90;;;;;;5080190;28;20074;-58
2021/07/23 08:01:42;;;;;;;16.73;8.13;;;19.00;99.90;;;;;;5079039;28;20395;-59
2021/07/23 08:04:08;;;;;;;12.13;7.68;;;18.90;99.90;;;;;;5076925;28;20458;-58
2021/07/23 08:06:36;;;;;;;13.48;8.20;;;18.90;99.90;;;;;;5079777;28;20021;-59
2021/07/23 08:09:05;;;;;;;20.35;8.10;;;19.00;99.90;;;;;;5078169;28;20081;-57
2021/07/23 08:11:32;;;;;;;18.10;8.20;;;19.10;99.90;;;;;;5085126;28;20226;-58
2021/07/23 08:13:58;;;;;;;17.27;8.98;;;19.00;99.90;;;;;;5077425;28;20070;-59
2021/07/23 08:16:24;;;;;;;12.98;7.85;;;19.10;99.90;;;;;;5083170;28;20044;-58
2021/07/23 08:18:50;;;;;;;13.73;8.32;;;19.00;99.90;;;;;;5073968;28;20052;-59
2021/07/23 08:21:15;;;;;;;15.35;7.68;;;19.00;99.90;;;;;;5085579;28;20124;-58
2021/07/23 08:23:41;;;;;;;15.27;8.32;;;19.00;99.90;;;;;;5080796;28;20032;-59
2021/07/23 08:26:07;;;;;;;15.73;8.13;;;19.10;99.90;;;;;;5089292;28;20032;-58
2021/07/23 08:28:33;;;;;;;13.55;7.80;;;19.00;99.90;;;;;;5079821;28;20020;-57
2021/07/23 08:30:59;;;;;;;12.30;7.88;;;19.00;99.90;;;;;;5073426;28;20151;-60
2021/07/23 08:33:25;;;;;;;13.68;7.82;;;19.00;99.90;;;;;;5071326;28;20070;-59
2021/07/23 08:35:51;;;;;;;17.13;8.35;;;19.10;99.90;;;;;;5072556;28;20025;-60
2021/07/23 08:38:17;;;;;;;14.35;8.30;;;19.10;99.90;;;;;;5073804;28;20031;-60
2021/07/23 08:40:43;;;;;;;17.02;8.13;;;19.10;99.90;;;;;;5072694;28;20040;-59
2021/07/23 08:43:10;;;;;;;22.80;8.50;;;19.20;99.90;;;;;;5081084;28;20035;-59
2021/07/23 08:45:36;;;;;;;14.02;7.63;;;19.20;99.90;;;;;;5084435;28;20142;-60
2021/07/23 08:48:04;;;;;;;13.90;7.70;;;19.30;99.90;;;;;;5074863;28;20394;-59
2021/07/23 08:50:30;;;;;;;15.82;7.32;;;19.30;99.90;;;;;;5079452;28;20111;-61
2021/07/23 08:52:56;;;;;;;13.30;7.75;;;19.30;99.90;;;;;;5078746;28;20044;-60
2021/07/23 08:55:23;;;;;;;13.18;8.02;;;19.40;99.90;;;;;;5073656;28;20094;-60
2021/07/23 08:57:50;;;;;;;14.57;7.68;;;19.40;99.90;;;;;;5075744;28;20030;-60
2021/07/23 09:00:18;;;;;;;17.70;7.75;;;19.50;99.90;;;;;;5075374;28;20028;-61
2021/07/23 09:02:56;;;;;;;13.90;7.43;;;19.50;99.90;;;;;;5077729;28;20058;-59
2021/07/23 09:05:33;;;;;;;13.57;7.88;;;19.50;99.90;;;;;;5073725;28;20367;-60
2021/07/23 09:08:00;;;;;;;16.40;7.45;;;19.50;99.90;;;;;;5080813;28;20032;-59
2021/07/23 09:10:28;;;;;;;15.65;7.75;;;19.40;99.90;;;;;;5071535;28;20055;-59
2021/07/23 09:12:57;;;;;;;16.92;7.18;;;19.40;99.90;;;;;;5080319;28;20049;-59
2021/07/23 09:15:28;;;;;;;12.70;7.57;;;19.60;99.90;;;;;;5072752;28;20059;-59
2021/07/23 09:17:55;;;;;;;18.15;8.00;;;19.60;99.90;;;;;;5070731;28;20029;-59
2021/07/23 09:20:29;;;;;;;12.15;7.22;;;19.70;99.90;;;;;;5079246;28;20071;-60
2021/07/23 09:23:03;;;;;;;14.85;7.60;;;19.60;99.90;;;;;;5069910;28;20036;-60
2021/07/23 09:25:36;;;;;;;12.52;7.00;;;19.70;99.90;;;;;;5075000;28;20032;-59
2021/07/23 09:28:18;;;;;;;13.82;7.82;;;19.60;99.90;;;;;;5069611;28;20490;-58
2021/07/23 09:30:43;;;;;;;13.50;7.38;;;19.60;99.90;;;;;;5070973;28;20048;-59
2021/07/23 09:33:10;;;;;;;16.30;8.90;;;19.50;99.90;;;;;;5070495;28;20029;-59
2021/07/23 09:35:36;;;;;;;12.02;7.20;;;19.60;99.90;;;;;;5086116;28;20478;-59
2021/07/23 09:38:02;;;;;;;15.43;7.63;;;19.60;99.90;;;;;;5084369;28;20032;-59
2021/07/23 09:40:43;;;;;;;15.15;7.93;;;19.70;99.90;;;;;;5070050;28;20058;-60
2021/07/23 09:43:09;;;;;;;16.98;8.18;;;19.60;99.90;;;;;;5070029;28;20120;-60
2021/07/23 09:45:35;;;;;;;16.73;8.10;;;19.70;99.90;;;;;;5083695;28;20441;-59
2021/07/23 09:48:07;;;;;;;11.88;8.07;;;19.80;99.90;;;;;;5082575;28;20031;-60
2021/07/23 09:50:37;;;;;;;13.27;8.27;;;19.80;99.90;;;;;;5070614;28;20016;-59
2021/07/23 09:53:03;;;;;;;12.68;7.75;;;19.90;99.90;;;;;;5070540;28;20615;-60
2021/07/23 09:55:29;;;;;;;12.85;7.38;;;20.10;99.90;;;;;;5071556;28;20111;-59
2021/07/23 09:57:57;;;;;;;15.32;8.23;;;20.10;99.90;;;;;;5079666;28;20273;-59
2021/07/23 10:00:23;;;;;;;15.90;7.32;;;20.20;99.90;;;;;;5081941;28;20111;-60
2021/07/23 10:02:50;;;;;;;17.65;7.40;;;20.20;99.90;;;;;;5077606;28;20032;-60
2021/07/23 10:05:20;;;;;;;12.68;7.32;;;20.20;99.90;;;;;;5082013;28;20032;-60
2021/07/23 10:07:59;;;;;;;15.02;7.68;;;20.30;99.90;;;;;;5074537;28;20028;-59
2021/07/23 10:10:25;;;;;;;20.55;7.85;;;20.50;99.90;;;;;;5069086;28;20363;-59
2021/07/23 10:12:53;;;;;;;11.45;6.88;;;20.60;99.90;;;;;;5075915;28;20052;-58
2021/07/23 10:15:19;;;;;;;16.48;7.38;;;20.80;99.90;;;;;;5071011;28;20029;-59
2021/07/23 10:17:47;;;;;;;12.10;6.68;;;20.90;99.90;;;;;;5071188;28;20044;-60
2021/07/23 10:20:17;;;;;;;12.13;6.68;;;21.10;99.90;;;;;;5069966;28;20383;-60
2021/07/23 10:22:43;;;;;;;10.38;7.05;;;21.20;99.90;;;;;;5083193;28;20674;-59
2021/07/23 10:25:09;;;;;;;14.40;7.45;;;21.20;99.90;;;;;;5077725;28;20036;-58
2021/07/23 10:27:35;;;;;;;12.43;6.95;;;21.20;99.90;;;;;;5079922;28;20025;-59
2021/07/23 10:30:01;;;;;;;12.57;6.40;;;21.20;99.90;;;;;;5079252;28;20474;-60
2021/07/23 10:32:34;;;;;;;12.80;6.38;;;21.40;99.90;;;;;;5074406;28;20067;-60
2021/07/23 10:35:22;;;;;;;11.23;7.18;;;21.20;99.90;;;;;;5074690;28;20510;-59
2021/07/23 10:37:52;;;;;;;13.02;7.43;;;21.30;99.90;;;;;;5060494;28;20037;-59
2021/07/23 10:40:20;;;;;;;15.30;7.75;;;21.10;99.90;;;;;;5084266;28;20090;-59
2021/07/23 10:42:46;;;;;;;10.50;7.10;;;21.00;99.90;;;;;;5075301;28;20119;-59
2021/07/23 10:45:19;;;;;;;17.63;7.57;;;21.10;99.90;;;;;;5074558;28;20055;-60
2021/07/23 10:47:49;;;;;;;15.20;7.60;;;21.20;99.90;;;;;;5074713;28;20143;-60
2021/07/23 10:50:22;;;;;;;13.32;7.20;;;21.30;99.90;;;;;;5083663;28;20085;-60
2021/07/23 10:52:49;;;;;;;13.65;7.05;;;21.20;99.90;;;;;;5078947;28;20390;-59
2021/07/23 10:55:21;;;;;;;13.05;7.20;;;21.20;99.90;;;;;;5073288;28;20028;-61
2021/07/23 10:58:07;;;;;;;13.80;7.53;;;21.30;99.90;;;;;;5075982;28;20036;-61
2021/07/23 11:00:53;;;;;;;19.15;9.00;;;21.20;99.90;;;;;;5077683;28;20055;-61
2021/07/23 11:03:37;;;;;;;12.65;6.93;;;21.30;99.90;;;;;;5073607;28;20032;-60
2021/07/23 11:06:24;;;;;;;11.55;7.43;;;21.80;99.90;;;;;;5073898;28;20032;-60
2021/07/23 11:08:55;;;;;;;11.43;7.03;;;22.00;99.90;;;;;;5079314;28;20027;-60
2021/07/23 11:11:25;;;;;;;13.50;7.07;;;21.90;99.90;;;;;;5074483;28;20036;-60
2021/07/23 11:13:51;;;;;;;13.90;7.45;;;21.80;99.90;;;;;;5073313;28;20486;-60
2021/07/23 11:16:19;;;;;;;12.80;7.18;;;21.70;99.90;;;;;;5074903;28;20033;-60
2021/07/23 11:18:56;;;;;;;19.50;7.88;;;22.00;99.90;;;;;;5073184;28;20025;-61
2021/07/23 11:21:35;;;;;;;11.73;7.28;;;22.30;99.90;;;;;;5072751;28;20381;-59
2021/07/23 11:24:08;;;;;;;13.00;7.47;;;22.50;99.90;;;;;;5071971;28;20036;-59
2021/07/23 11:26:34;;;;;;;14.02;7.90;;;22.60;99.90;;;;;;5080243;28;20062;-61
2021/07/23 11:28:59;;;;;;;15.18;8.32;;;22.70;99.90;;;;;;5078803;28;20032;-60
2021/07/23 11:31:33;;;;;;;14.65;7.90;;;22.50;99.90;;;;;;5072731;28;20097;-60
2021/07/23 11:34:20;;;;;;;12.82;7.45;;;22.40;99.90;;;;;;5073224;28;20043;-61
2021/07/23 11:36:46;;;;;;;12.57;7.18;;;22.70;99.90;;;;;;5086073;28;20386;-60
2021/07/23 11:39:12;;;;;;;13.07;7.78;;;22.60;99.90;;;;;;5072622;28;20037;-60
2021/07/23 11:41:57;;;;;;;10.75;7.35;;;22.50;99.90;;;;;;5077440;28;20477;-61
2021/07/23 11:44:23;;;;;;;;;;;22.70;99.90;;;;;;5073292;28;20028;-61
2021/07/23 11:46:48;;;;;;;15.18;7.35;;;22.80;99.90;;;;;;5085911;28;20423;-60
2021/07/23 11:49:14;;;;;;;24.92;8.55;;;22.80;99.90;;;;;;5072551;28;20029;-61
2021/07/23 11:51:42;;;;;;;12.27;7.43;;;22.60;99.90;;;;;;5074901;28;20393;-60
2021/07/23 11:54:08;;;;;;;12.50;7.50;;;22.60;99.90;;;;;;5072336;28;20029;-60
2021/07/23 11:56:34;;;;;;;12.15;8.38;;;22.70;99.90;;;;;;5073772;28;20447;-60
2021/07/23 11:59:03;;;;;;;13.30;8.50;;;22.40;99.90;;;;;;5072521;28;20038;-61
2021/07/23 12:01:40;;;;;;;17.88;7.70;;;22.20;99.90;;;;;;5082087;28;20032;-60
2021/07/23 12:04:08;;;;;;;16.02;7.75;;;22.60;99.90;;;;;;5077214;28;20032;-59
2021/07/23 12:06:38;;;;;;;17.27;8.20;;;22.90;99.90;;;;;;5080722;28;20036;-60
2021/07/23 12:09:06;;;;;;;10.60;7.93;;;22.90;99.90;;;;;;5078612;28;20378;-60
2021/07/23 12:11:34;;;;;;;12.55;7.43;;;22.80;99.90;;;;;;5079185;28;20036;-59
2021/07/23 12:14:10;;;;;;;16.02;8.45;;;22.60;99.90;;;;;;5076726;28;20492;-60
2021/07/23 12:16:38;;;;;;;14.27;7.18;;;22.40;99.90;;;;;;5077484;28;20037;-61
2021/07/23 12:19:09;;;;;;;21.17;7.43;;;22.50;99.90;;;;;;5073470;28;20125;-60
2021/07/23 12:21:36;;;;;;;14.35;7.97;;;22.40;99.90;;;;;;5082572;28;20043;-60
2021/07/23 12:24:05;;;;;;;13.05;7.93;;;22.50;99.90;;;;;;5083557;28;20135;-61
2021/07/23 12:26:32;;;;;;;13.25;7.78;;;22.80;99.90;;;;;;5075928;28;20482;-60
2021/07/23 12:28:58;;;;;;;16.15;7.75;;;22.70;99.90;;;;;;5077225;28;20032;-61
2021/07/23 12:31:25;;;;;;;15.05;7.60;;;22.70;99.90;;;;;;5074510;28;20086;-60
2021/07/23 12:34:10;;;;;;;13.48;8.07;;;22.80;99.90;;;;;;5071757;28;20024;-60